Time;durP1;ratioP1;P1;durP2;ratioP2;P2;SDS_P1;SDS_P2;PMS_P1;PMS_P2;Temp;Humidity;BMP_temperature;BMP_pressure;BME280_temperature;BME280_humidity;BME280_pressure;Samples;Min_cycle;Max_cycle;Signal;HPM_P1;HPM_P2
2021/04/21 00:00:36;;;;;;;9.26;6.29;;;;;;;;;;362635;145;858671;-57
2021/04/21 00:01:38;;;;;;;8.99;6.62;;;;;;;;;;363148;145;857387;-57
2021/04/21 00:02:40;;;;;;;11.45;6.31;;;;;;;;;;361375;144;857226;-57
2021/04/21 00:03:43;;;;;;;7.69;6.20;;;;;;;;;;364494;144;857408;-57
2021/04/21 00:04:45;;;;;;;10.41;6.36;;;;;;;;;;362313;147;865314;-57
2021/04/21 00:05:47;;;;;;;9.81;6.41;;;;;;;;;;363529;146;861175;-57
2021/04/21 00:06:49;;;;;;;9.53;6.43;;;;;;;;;;362839;144;857204;-57
2021/04/21 00:07:51;;;;;;;10.48;6.17;;;;;;;;;;364137;144;857380;-57
2021/04/21 00:08:52;;;;;;;9.05;6.25;;;;;;;;;;363305;145;859219;-57
2021/04/21 00:09:54;;;;;;;9.84;6.51;;;;;;;;;;364385;146;860163;-57
2021/04/21 00:10:56;;;;;;;8.52;6.01;;;;;;;;;;361468;146;866457;-57
2021/04/21 00:11:57;;;;;;;10.11;6.44;;;;;;;;;;356155;148;865579;-57
2021/04/21 00:12:59;;;;;;;8.90;6.46;;;;;;;;;;356755;148;857416;-57
2021/04/21 00:14:01;;;;;;;7.65;6.35;;;;;;;;;;362708;146;857559;-56
2021/04/21 00:15:04;;;;;;;9.79;6.71;;;;;;;;;;364406;145;857328;-56
2021/04/21 00:16:07;;;;;;;9.76;5.92;;;;;;;;;;362048;147;866671;-57
2021/04/21 00:17:08;;;;;;;11.24;6.37;;;;;;;;;;363555;145;857493;-58
2021/04/21 00:18:10;;;;;;;9.47;6.64;;;;;;;;;;362323;144;857299;-60
2021/04/21 00:19:12;;;;;;;9.56;5.76;;;;;;;;;;362996;146;865150;-59
2021/04/21 00:20:14;;;;;;;9.43;6.12;;;;;;;;;;362603;145;857729;-60
2021/04/21 00:21:16;;;;;;;10.95;6.45;;;;;;;;;;362666;146;857303;-59
2021/04/21 00:22:18;;;;;;;10.42;6.30;;;;;;;;;;360070;146;857981;-59
2021/04/21 00:23:19;;;;;;;10.42;6.81;;;;;;;;;;365870;145;867419;-59
2021/04/21 00:24:21;;;;;;;7.96;6.04;;;;;;;;;;364398;147;865951;-59
2021/04/21 00:25:23;;;;;;;8.99;6.09;;;;;;;;;;357973;145;865032;-59
2021/04/21 00:26:26;;;;;;;11.44;6.88;;;;;;;;;;359418;148;867105;-59
2021/04/21 00:27:28;;;;;;;10.71;6.28;;;;;;;;;;360236;147;857329;-59
2021/04/21 00:28:31;;;;;;;7.57;5.89;;;;;;;;;;360674;145;867288;-60
2021/04/21 00:29:34;;;;;;;10.28;6.22;;;;;;;;;;357685;147;857679;-59
2021/04/21 00:30:36;;;;;;;9.24;5.96;;;;;;;;;;358701;145;857210;-59
2021/04/21 00:31:38;;;;;;;11.08;6.26;;;;;;;;;;359653;146;857330;-58
2021/04/21 00:32:41;;;;;;;12.93;6.26;;;;;;;;;;358950;148;865819;-59
2021/04/21 00:33:43;;;;;;;9.74;6.71;;;;;;;;;;358819;145;859420;-58
2021/04/21 00:34:45;;;;;;;7.64;6.06;;;;;;;;;;357098;148;857743;-58
2021/04/21 00:35:46;;;;;;;8.52;5.94;;;;;;;;;;357371;150;867095;-58
2021/04/21 00:36:49;;;;;;;8.49;5.78;;;;;;;;;;354956;148;857288;-58
2021/04/21 00:37:52;;;;;;;6.90;5.61;;;;;;;;;;361467;147;858267;-58
2021/04/21 00:38:54;;;;;;;8.41;5.94;;;;;;;;;;361206;145;859166;-58
2021/04/21 00:39:56;;;;;;;8.01;5.52;;;;;;;;;;356957;146;857377;-58
2021/04/21 00:41:00;;;;;;;9.07;6.23;;;;;;;;;;362132;148;857604;-58
2021/04/21 00:42:06;;;;;;;9.76;5.47;;;;;;;;;;358194;146;856538;-59
2021/04/21 00:43:19;;;;;;;11.91;5.52;;;;;;;;;;358518;148;857426;-58
2021/04/21 00:44:28;;;;;;;7.73;5.43;;;;;;;;;;359902;145;859043;-58
2021/04/21 00:45:42;;;;;;;7.94;5.44;;;;;;;;;;357899;146;857266;-59
2021/04/21 00:46:49;;;;;;;9.78;5.68;;;;;;;;;;359207;148;859047;-58
2021/04/21 00:47:52;;;;;;;8.34;5.14;;;;;;;;;;357997;145;857292;-59
2021/04/21 00:48:56;;;;;;;8.56;5.81;;;;;;;;;;358460;148;857456;-58
2021/04/21 00:49:59;;;;;;;8.84;5.46;;;;;;;;;;352158;145;865154;-58
2021/04/21 00:51:02;;;;;;;10.72;6.41;;;;;;;;;;360646;146;857445;-58
2021/04/21 00:52:04;;;;;;;9.34;5.79;;;;;;;;;;357529;148;857329;-58
2021/04/21 00:53:10;;;;;;;10.90;6.54;;;;;;;;;;354999;148;857879;-58
2021/04/21 00:54:31;;;;;;;7.29;5.76;;;;;;;;;;352662;148;857723;-58
2021/04/21 00:55:41;;;;;;;13.82;6.39;;;;;;;;;;357683;148;858260;-59
2021/04/21 00:56:54;;;;;;;9.01;6.47;;;;;;;;;;356594;150;857205;-59
2021/04/21 00:58:03;;;;;;;10.74;6.58;;;;;;;;;;357187;148;859057;-58
2021/04/21 00:59:16;;;;;;;9.99;6.30;;;;;;;;;;357900;146;859078;-58
2021/04/21 01:00:20;;;;;;;10.07;6.56;;;;;;;;;;356522;150;858755;-58
2021/04/21 01:01:21;;;;;;;9.81;6.50;;;;;;;;;;360612;145;859084;-57
2021/04/21 01:02:24;;;;;;;13.11;6.02;;;;;;;;;;362235;147;857409;-58
2021/04/21 01:03:25;;;;;;;8.71;5.69;;;;;;;;;;358630;145;865094;-58
2021/04/21 01:04:27;;;;;;;9.00;5.74;;;;;;;;;;358764;147;858943;-57
2021/04/21 01:05:30;;;;;;;9.36;6.17;;;;;;;;;;362471;148;858650;-57
2021/04/21 01:06:39;;;;;;;7.78;5.81;;;;;;;;;;362477;145;864898;-58
2021/04/21 01:07:41;;;;;;;7.51;5.65;;;;;;;;;;359704;148;857156;-59
2021/04/21 01:08:44;;;;;;;8.59;5.94;;;;;;;;;;362701;146;857690;-57
2021/04/21 01:09:46;;;;;;;8.75;5.81;;;;;;;;;;359245;145;857448;-57
2021/04/21 01:10:50;;;;;;;10.53;6.08;;;;;;;;;;362612;147;856539;-57
2021/04/21 01:11:53;;;;;;;9.34;6.19;;;;;;;;;;357393;145;856792;-57
2021/04/21 01:12:55;;;;;;;12.13;6.21;;;;;;;;;;356854;150;856275;-57
2021/04/21 01:13:58;;;;;;;7.56;5.75;;;;;;;;;;357297;150;856397;-57
2021/04/21 01:14:59;;;;;;;8.55;5.81;;;;;;;;;;358980;145;858278;-57
2021/04/21 01:16:01;;;;;;;8.24;6.26;;;;;;;;;;359280;148;863949;-57
2021/04/21 01:17:04;;;;;;;7.55;5.26;;;;;;;;;;363707;145;858306;-57
2021/04/21 01:18:06;;;;;;;9.24;5.51;;;;;;;;;;361041;146;856189;-57
2021/04/21 01:19:09;;;;;;;7.59;5.25;;;;;;;;;;357647;148;856648;-57
2021/04/21 01:20:12;;;;;;;7.86;5.96;;;;;;;;;;340426;154;856234;-57
2021/04/21 01:21:14;;;;;;;8.28;5.84;;;;;;;;;;350018;148;856761;-57
2021/04/21 01:22:23;;;;;;;8.03;5.71;;;;;;;;;;363757;147;856007;-57
2021/04/21 01:25:29;;;;;;;7.37;5.24;;;;;;;7.86;63.10;99163.81;372397;142;881283;-58
2021/04/21 01:26:53;;;;;;;9.04;5.43;;;;;;;7.81;63.02;99170.73;362401;147;857322;-59
2021/04/21 01:27:59;;;;;;;8.47;5.88;;;;;;;7.82;63.17;99163.87;363329;145;858611;-59
2021/04/21 01:29:01;;;;;;;9.47;5.52;;;;;;;7.81;62.92;99169.89;356900;149;856731;-59
2021/04/21 01:30:04;;;;;;;7.76;5.81;;;;;;;7.81;62.95;99175.88;357552;147;857236;-59
2021/04/21 01:31:06;;;;;;;7.87;5.66;;;;;;;7.79;62.86;99169.89;364032;146;857179;-59
2021/04/21 01:32:26;;;;;;;7.39;5.52;;;;;;;7.77;62.78;99170.78;363374;145;856224;-58
2021/04/21 01:33:28;;;;;;;;;;;;;;;7.74;62.96;99169.95;367517;145;855926;-58
2021/04/21 01:34:31;;;;;;;7.39;5.56;;;;;;;7.69;62.76;99168.27;363233;147;856711;-59
2021/04/21 01:35:33;;;;;;;6.67;5.24;;;;;;;7.65;62.93;99167.45;362288;146;856799;-58
2021/04/21 01:36:36;;;;;;;7.08;5.34;;;;;;;7.58;62.99;99174.36;364161;146;856242;-58
2021/04/21 01:37:38;;;;;;;6.94;5.41;;;;;;;7.54;63.27;99171.84;352471;151;856214;-58
2021/04/21 01:38:40;;;;;;;14.10;6.29;;;;;;;7.53;63.45;99173.55;359408;149;863639;-58
2021/04/21 01:39:48;;;;;;;8.06;5.68;;;;;;;7.56;63.72;99175.26;365761;146;856441;-58
2021/04/21 01:40:50;;;;;;;6.34;5.39;;;;;;;7.56;63.72;99175.26;365890;147;863556;-59
2021/04/21 01:41:53;;;;;;;8.64;6.10;;;;;;;7.60;63.62;99180.36;364810;146;856254;-58
2021/04/21 01:42:56;;;;;;;8.90;5.59;;;;;;;7.59;63.69;99173.50;365117;147;856551;-58
2021/04/21 01:45:39;;;;;;;8.17;5.38;;;;;;;7.73;63.59;99169.95;372309;142;881441;-59
2021/04/21 01:46:44;;;;;;;9.49;5.33;;;;;;;7.61;63.41;99178.66;359914;147;857333;-59
2021/04/21 01:47:45;;;;;;;8.44;5.75;;;;;;;7.61;63.70;99181.23;364025;145;865855;-58
2021/04/21 01:48:47;;;;;;;6.93;5.38;;;;;;;7.61;63.46;99183.80;362398;147;857459;-59
2021/04/21 01:49:58;;;;;;;5.79;4.81;;;;;;;7.60;63.47;99179.52;364751;144;859892;-58
2021/04/21 01:51:06;;;;;;;7.69;5.69;;;;;;;7.64;63.44;99176.05;361033;147;858008;-58
2021/04/21 01:52:39;;;;;;;9.62;5.19;;;;;;;7.67;63.07;99177.73;359208;146;857332;-59
2021/04/21 01:53:56;;;;;;;9.12;5.35;;;;;;;7.64;63.11;99183.78;363878;145;857209;-60
2021/04/21 01:55:00;;;;;;;11.24;5.87;;;;;;;7.54;63.17;99182.14;360055;146;859683;-60
2021/04/21 01:56:32;;;;;;;9.37;5.07;;;;;;;7.43;64.04;99203.69;363956;145;857541;-59
2021/04/21 01:57:43;;;;;;;7.68;5.63;;;;;;;7.43;64.04;99203.69;360040;147;859859;-59
2021/04/21 01:59:11;;;;;;;8.54;5.23;;;;;;;7.39;64.10;99181.37;366494;145;857311;-57
2021/04/21 02:00:18;;;;;;;6.46;4.82;;;;;;;7.41;64.12;99178.80;365606;145;857135;-58
2021/04/21 02:01:42;;;;;;;8.57;5.41;;;;;;;7.41;64.12;99178.80;361746;146;858854;-58
2021/04/21 02:02:45;;;;;;;8.26;4.89;;;;;;;7.36;63.57;99181.39;365150;146;857226;-58
2021/04/21 02:03:50;;;;;;;7.22;4.89;;;;;;;7.30;63.91;99182.30;363002;145;857341;-58
2021/04/21 02:05:04;;;;;;;7.97;5.56;;;;;;;7.13;64.64;99179.83;362732;146;857582;-58
2021/04/21 02:06:27;;;;;;;9.19;5.49;;;;;;;7.10;64.72;99174.70;363652;144;857920;-58
2021/04/21 02:07:39;;;;;;;7.29;5.49;;;;;;;7.10;64.79;99179.84;356485;149;857576;-57
2021/04/21 02:08:51;;;;;;;7.08;5.21;;;;;;;7.14;64.72;99180.70;356365;147;860007;-58
2021/04/21 02:10:27;;;;;;;6.92;5.24;;;;;;;7.17;64.62;99178.11;363110;146;857750;-58
2021/04/21 02:11:31;;;;;;;8.49;5.54;;;;;;;7.19;64.70;99178.95;362680;145;857192;-58
2021/04/21 02:12:35;;;;;;;8.57;5.38;;;;;;;;;;355583;147;857358;-58
2021/04/21 02:13:39;;;;;;;8.70;5.63;;;;;;;;;;364062;146;864942;-58
2021/04/21 02:14:51;;;;;;;6.22;5.19;;;;;;;;;;364877;145;859681;-58
2021/04/21 02:16:13;;;;;;;8.04;5.28;;;;;;;;;;362613;146;857312;-58
2021/04/21 02:17:23;;;;;;;7.59;5.06;;;;;;;;;;362819;145;857840;-58
2021/04/21 02:18:43;;;;;;;7.96;5.06;;;;;;;;;;363732;144;857310;-58
2021/04/21 02:19:47;;;;;;;8.55;5.55;;;;;;;;;;365106;144;857975;-58
2021/04/21 02:21:07;;;;;;;8.77;5.50;;;;;;;;;;363499;145;857756;-58
2021/04/21 02:22:23;;;;;;;8.62;5.32;;;;;;;;;;370927;144;864872;-59
2021/04/21 02:23:29;;;;;;;11.59;5.33;;;;;;;;;;363457;145;865019;-60
2021/04/21 02:24:50;;;;;;;9.22;5.29;;;;;;;;;;363036;146;857356;-60
2021/04/21 02:25:56;;;;;;;7.41;5.41;;;;;;;;;;363220;146;857180;-58
2021/04/21 02:27:00;;;;;;;8.99;5.11;;;;;;;;;;362283;146;865276;-58
2021/04/21 02:28:10;;;;;;;8.66;5.53;;;;;;;;;;363962;145;858157;-58
2021/04/21 02:29:16;;;;;;;9.77;5.61;;;;;;;;;;352610;148;857371;-58
2021/04/21 02:30:20;;;;;;;8.38;5.48;;;;;;;;;;348532;150;857303;-58
2021/04/21 02:31:40;;;;;;;7.44;5.24;;;;;;;;;;354537;148;857326;-58
2021/04/21 02:33:00;;;;;;;8.12;5.06;;;;;;;;;;352682;148;857852;-58
2021/04/21 02:34:21;;;;;;;9.35;5.54;;;;;;;;;;363266;145;864912;-58
2021/04/21 02:35:27;;;;;;;8.45;5.40;;;;;;;;;;362582;148;857954;-58
2021/04/21 02:36:43;;;;;;;9.36;5.35;;;;;;;;;;362898;145;857208;-59
2021/04/21 02:37:55;;;;;;;7.77;4.98;;;;;;;;;;363337;148;857393;-58
2021/04/21 02:39:02;;;;;;;10.43;5.94;;;;;;;;;;362485;145;859719;-58
2021/04/21 02:40:24;;;;;;;9.02;4.98;;;;;;;;;;365569;146;857430;-58
2021/04/21 02:41:27;;;;;;;10.17;5.48;;;;;;;;;;363196;145;857649;-59
2021/04/21 02:42:31;;;;;;;7.82;5.29;;;;;;;;;;363477;146;857308;-58
2021/04/21 02:43:40;;;;;;;6.81;5.37;;;;;;;;;;362502;148;858442;-58
2021/04/21 02:44:44;;;;;;;9.02;5.36;;;;;;;;;;362979;145;857699;-58
2021/04/21 02:45:53;;;;;;;9.34;5.41;;;;;;;;;;362463;147;857193;-58
2021/04/21 02:47:12;;;;;;;7.16;5.16;;;;;;;;;;363063;145;857421;-59
2021/04/21 02:48:18;;;;;;;7.62;5.09;;;;;;;;;;365777;147;858147;-58
2021/04/21 02:49:21;;;;;;;8.27;4.79;;;;;;;;;;364387;145;857720;-58
2021/04/21 02:50:26;;;;;;;6.32;4.87;;;;;;;;;;363032;146;857332;-58
2021/04/21 02:51:35;;;;;;;7.44;5.84;;;;;;;;;;363557;146;857294;-58
2021/04/21 02:52:55;;;;;;;8.86;4.87;;;;;;;;;;362901;145;857478;-58
2021/04/21 02:54:16;;;;;;;7.77;5.22;;;;;;;;;;362503;148;858092;-59
2021/04/21 02:55:22;;;;;;;7.82;5.12;;;;;;;;;;363501;144;857805;-59
2021/04/21 02:56:36;;;;;;;8.87;5.53;;;;;;;;;;362366;145;859353;-60
2021/04/21 02:57:39;;;;;;;8.96;5.26;;;;;;;;;;366622;144;858777;-59
2021/04/21 02:58:43;;;;;;;8.50;5.03;;;;;;;;;;362956;145;857613;-59
2021/04/21 02:59:46;;;;;;;8.11;5.23;;;;;;;;;;363976;146;857400;-59
2021/04/21 03:01:08;;;;;;;9.68;5.07;;;;;;;;;;363117;145;857469;-59
2021/04/21 03:02:21;;;;;;;8.37;5.34;;;;;;;;;;364855;146;865199;-61
2021/04/21 03:03:33;;;;;;;7.19;4.92;;;;;;;;;;366032;145;858066;-60
2021/04/21 03:04:37;;;;;;;8.07;4.87;;;;;;;;;;362438;148;858995;-60
2021/04/21 03:05:40;;;;;;;6.51;5.04;;;;;;;;;;362558;146;857300;-60
2021/04/21 03:06:49;;;;;;;7.02;5.09;;;;;;;;;;362465;145;857344;-60
2021/04/21 03:07:55;;;;;;;7.16;5.06;;;;;;;;;;366232;146;866476;-61
2021/04/21 03:09:01;;;;;;;8.12;5.32;;;;;;;;;;363411;145;857418;-60
2021/04/21 03:10:07;;;;;;;9.00;5.42;;;;;;;;;;363287;146;858197;-60
2021/04/21 03:11:10;;;;;;;8.04;5.32;;;;;;;;;;362702;147;857452;-60
2021/04/21 03:12:11;;;;;;;5.53;4.71;;;;;;;;;;362635;145;857797;-60
2021/04/21 03:13:15;;;;;;;7.12;5.26;;;;;;;;;;362408;148;859695;-60
2021/04/21 03:14:18;;;;;;;7.43;5.19;;;;;;;;;;362560;145;857276;-60
2021/04/21 03:15:20;;;;;;;7.12;5.22;;;;;;;;;;363305;144;859829;-60
2021/04/21 03:16:24;;;;;;;7.42;5.08;;;;;;;;;;365578;144;858365;-60
2021/04/21 03:17:25;;;;;;;7.02;4.96;;;;;;;;;;362728;145;864991;-60
2021/04/21 03:18:27;;;;;;;8.08;4.94;;;;;;;;;;362469;145;864777;-60
2021/04/21 03:19:31;;;;;;;6.79;5.28;;;;;;;;;;363063;146;857728;-60
2021/04/21 03:20:33;;;;;;;8.29;5.19;;;;;;;;;;362835;145;857357;-60
2021/04/21 03:21:39;;;;;;;8.64;4.91;;;;;;;;;;362735;144;859158;-57
2021/04/21 03:22:41;;;;;;;8.19;5.43;;;;;;;;;;364497;146;866080;-58
2021/04/21 03:23:43;;;;;;;7.40;4.96;;;;;;;;;;359385;146;859570;-58
2021/04/21 03:24:48;;;;;;;8.35;5.17;;;;;;;;;;356783;150;866608;-57
2021/04/21 03:25:52;;;;;;;6.78;5.23;;;;;;;;;;364939;145;859456;-59
2021/04/21 03:26:54;;;;;;;10.61;5.45;;;;;;;;;;363155;145;859661;-58
2021/04/21 03:27:57;;;;;;;7.75;5.29;;;;;;;;;;362339;148;865393;-58
2021/04/21 03:28:59;;;;;;;7.14;5.07;;;;;;;;;;362234;146;859215;-58
2021/04/21 03:30:05;;;;;;;7.07;5.38;;;;;;;;;;362491;144;857315;-58
2021/04/21 03:31:06;;;;;;;8.51;5.30;;;;;;;;;;363541;144;864790;-59
2021/04/21 03:32:10;;;;;;;6.95;5.22;;;;;;;;;;363163;145;858649;-59
2021/04/21 03:33:19;;;;;;;10.56;5.49;;;;;;;;;;362599;146;857278;-60
2021/04/21 03:34:20;;;;;;;8.53;5.21;;;;;;;;;;362302;146;857405;-59
2021/04/21 03:35:23;;;;;;;7.83;5.91;;;;;;;;;;364302;146;859005;-60
2021/04/21 03:36:25;;;;;;;6.93;5.48;;;;;;;;;;368542;145;867102;-61
2021/04/21 03:37:37;;;;;;;8.92;5.77;;;;;;;;;;365782;145;866613;-60
2021/04/21 03:38:39;;;;;;;8.58;5.82;;;;;;;;;;362806;145;857363;-60
2021/04/21 03:39:40;;;;;;;7.80;5.37;;;;;;;;;;362841;146;858647;-60
2021/04/21 03:40:43;;;;;;;6.71;5.59;;;;;;;;;;364856;145;866763;-59
2021/04/21 03:41:44;;;;;;;6.75;5.07;;;;;;;;;;363024;148;857306;-59
2021/04/21 03:42:46;;;;;;;8.49;5.30;;;;;;;;;;363718;146;859394;-59
2021/04/21 03:43:48;;;;;;;8.48;5.54;;;;;;;;;;363361;144;864815;-59
2021/04/21 03:44:49;;;;;;;10.67;5.84;;;;;;;;;;362994;146;857502;-59
2021/04/21 03:45:51;;;;;;;9.92;5.29;;;;;;;;;;362699;145;858482;-57
2021/04/21 03:46:53;;;;;;;7.41;5.65;;;;;;;;;;362678;145;857566;-57
2021/04/21 03:47:55;;;;;;;9.11;5.98;;;;;;;;;;363299;146;857357;-57
2021/04/21 03:48:57;;;;;;;10.59;6.18;;;;;;;;;;362765;144;859425;-57
2021/04/21 03:49:58;;;;;;;10.31;5.51;;;;;;;;;;362583;144;866336;-57
2021/04/21 03:51:00;;;;;;;7.16;4.96;;;;;;;;;;362834;148;864912;-57
2021/04/21 03:52:02;;;;;;;9.59;5.45;;;;;;;;;;362824;144;864942;-57
2021/04/21 03:53:05;;;;;;;8.24;5.86;;;;;;;;;;362711;148;857780;-57
2021/04/21 03:54:07;;;;;;;6.66;5.28;;;;;;;;;;362088;148;864826;-58
2021/04/21 03:55:09;;;;;;;11.03;6.16;;;;;;;;;;361383;145;859384;-57
2021/04/21 03:56:13;;;;;;;9.21;5.66;;;;;;;;;;361772;147;859551;-57
2021/04/21 03:57:15;;;;;;;8.83;6.16;;;;;;;;;;362611;146;858747;-57
2021/04/21 03:58:17;;;;;;;8.70;6.24;;;;;;;;;;362751;146;857266;-57
2021/04/21 03:59:18;;;;;;;8.76;6.04;;;;;;;;;;363902;144;859497;-57
2021/04/21 04:00:21;;;;;;;9.48;5.85;;;;;;;;;;365181;146;866590;-57
2021/04/21 04:01:23;;;;;;;9.76;6.21;;;;;;;;;;364048;146;859014;-57
2021/04/21 04:02:25;;;;;;;8.13;6.05;;;;;;;;;;362601;146;857250;-58
2021/04/21 04:03:27;;;;;;;8.93;5.98;;;;;;;;;;362631;144;857278;-57
2021/04/21 04:04:29;;;;;;;8.89;5.38;;;;;;;;;;362672;146;866815;-57
2021/04/21 04:05:35;;;;;;;9.91;6.23;;;;;;;;;;364276;144;859013;-58
2021/04/21 04:06:39;;;;;;;7.84;6.02;;;;;;;;;;341098;154;865431;-58
2021/04/21 04:07:41;;;;;;;7.62;5.67;;;;;;;;;;354358;146;858324;-58
2021/04/21 04:08:50;;;;;;;8.75;5.94;;;;;;;;;;364473;144;858718;-58
2021/04/21 04:09:51;;;;;;;8.14;5.81;;;;;;;;;;362464;146;857379;-58
2021/04/21 04:10:54;;;;;;;8.17;5.99;;;;;;;;;;362631;146;858260;-58
2021/04/21 04:11:56;;;;;;;10.50;6.01;;;;;;;;;;364556;146;857384;-58
2021/04/21 04:12:57;;;;;;;7.99;5.45;;;;;;;;;;363146;146;858000;-57
2021/04/21 04:14:06;;;;;;;7.16;6.01;;;;;;;;;;360038;147;857128;-58
2021/04/21 04:15:08;;;;;;;7.49;5.67;;;;;;;;;;360180;145;866583;-58
2021/04/21 04:16:11;;;;;;;10.60;5.61;;;;;;;;;;362749;146;857390;-58
2021/04/21 04:17:14;;;;;;;6.38;5.47;;;;;;;;;;362901;144;866885;-58
2021/04/21 04:18:16;;;;;;;7.54;5.88;;;;;;;;;;362932;146;857354;-58
2021/04/21 04:19:18;;;;;;;9.41;6.29;;;;;;;;;;363999;144;857332;-58
2021/04/21 04:20:19;;;;;;;7.97;6.73;;;;;;;;;;364813;144;857402;-58
2021/04/21 04:21:21;;;;;;;9.09;6.03;;;;;;;;;;363244;144;865146;-57
2021/04/21 04:22:22;;;;;;;8.34;5.96;;;;;;;;;;362933;144;857347;-58
2021/04/21 04:23:24;;;;;;;14.30;6.28;;;;;;;;;;362732;144;866171;-58
2021/04/21 04:24:25;;;;;;;10.84;6.35;;;;;;;;;;363842;146;865636;-58
2021/04/21 04:25:27;;;;;;;8.08;5.99;;;;;;;;;;365942;144;866405;-58
2021/04/21 04:26:30;;;;;;;10.90;6.58;;;;;;;;;;362476;146;865125;-58
2021/04/21 04:27:32;;;;;;;8.53;6.04;;;;;;;;;;363570;144;857257;-58
2021/04/21 04:28:33;;;;;;;6.64;5.41;;;;;;;;;;363864;144;859011;-58
2021/04/21 04:29:35;;;;;;;8.38;5.84;;;;;;;;;;363932;146;859999;-59
2021/04/21 04:30:38;;;;;;;9.59;6.91;;;;;;;;;;362376;144;860546;-58
2021/04/21 04:31:39;;;;;;;8.27;6.45;;;;;;;;;;363835;144;857365;-58
2021/04/21 04:32:41;;;;;;;10.39;6.17;;;;;;;;;;364062;146;857415;-57
2021/04/21 04:33:43;;;;;;;8.74;6.49;;;;;;;;;;362755;144;857497;-58
2021/04/21 04:34:45;;;;;;;11.44;7.09;;;;;;;;;;362499;144;857188;-58
2021/04/21 04:35:47;;;;;;;10.00;6.43;;;;;;;;;;363237;147;859213;-58
2021/04/21 04:36:49;;;;;;;9.81;6.45;;;;;;;;;;362604;144;858941;-58
2021/04/21 04:37:50;;;;;;;9.54;6.36;;;;;;;;;;362500;146;865830;-58
2021/04/21 04:38:52;;;;;;;8.54;6.71;;;;;;;;;;363424;146;866499;-58
2021/04/21 04:39:54;;;;;;;7.52;6.34;;;;;;;;;;364048;144;865928;-58
2021/04/21 04:40:56;;;;;;;8.10;6.55;;;;;;;;;;363916;146;859804;-58
2021/04/21 04:41:57;;;;;;;11.35;6.46;;;;;;;;;;363276;144;865146;-58
2021/04/21 04:42:59;;;;;;;11.36;7.01;;;;;;;;;;363686;144;864259;-58
2021/04/21 04:44:01;;;;;;;10.53;6.88;;;;;;;;;;362371;148;857422;-58
2021/04/21 04:45:04;;;;;;;9.75;7.10;;;;;;;;;;364893;144;865484;-59
2021/04/21 04:46:05;;;;;;;10.07;7.06;;;;;;;;;;362262;146;865015;-58
2021/04/21 04:47:08;;;;;;;10.80;7.24;;;;;;;;;;362319;146;860290;-57
2021/04/21 04:48:11;;;;;;;9.59;7.16;;;;;;;;;;365855;144;857618;-57
2021/04/21 04:49:14;;;;;;;8.66;6.78;;;;;;;;;;363776;144;857257;-57
2021/04/21 04:50:17;;;;;;;7.99;6.64;;;;;;;;;;354571;149;857741;-57
2021/04/21 04:51:19;;;;;;;10.25;7.26;;;;;;;;;;357513;146;857616;-57
2021/04/21 04:52:21;;;;;;;9.79;7.04;;;;;;;;;;364792;146;858791;-57
2021/04/21 04:53:22;;;;;;;12.08;7.47;;;;;;;;;;362658;144;857358;-57
2021/04/21 04:54:24;;;;;;;9.94;7.11;;;;;;;;;;364336;144;865488;-57
2021/04/21 04:55:26;;;;;;;8.39;6.61;;;;;;;;;;362884;146;865051;-57
2021/04/21 04:56:31;;;;;;;8.79;6.81;;;;;;;;;;365458;146;858247;-58
2021/04/21 04:57:33;;;;;;;9.59;6.78;;;;;;;;;;362515;144;857063;-57
2021/04/21 04:58:35;;;;;;;9.57;7.21;;;;;;;;;;362913;146;857374;-58
2021/04/21 04:59:37;;;;;;;9.65;6.86;;;;;;;;;;362925;146;859390;-58
2021/04/21 05:00:44;;;;;;;9.24;6.36;;;;;;;;;;362599;144;858311;-57
2021/04/21 05:01:45;;;;;;;8.96;6.98;;;;;;;;;;362218;148;858266;-57
2021/04/21 05:03:06;;;;;;;10.84;7.85;;;;;;;;;;362890;144;857342;-57
2021/04/21 05:04:07;;;;;;;11.60;7.31;;;;;;;;;;367662;146;858552;-58
2021/04/21 05:05:09;;;;;;;10.59;7.32;;;;;;;;;;360290;147;865234;-57
2021/04/21 05:06:12;;;;;;;9.13;7.42;;;;;;;;;;361019;146;865099;-58
2021/04/21 05:07:14;;;;;;;11.85;7.71;;;;;;;;;;363496;146;858790;-58
2021/04/21 05:08:16;;;;;;;13.08;7.70;;;;;;;;;;363897;144;857762;-58
2021/04/21 05:09:18;;;;;;;10.99;7.58;;;;;;;;;;364155;146;857384;-57
2021/04/21 05:10:26;;;;;;;10.26;7.46;;;;;;;;;;362249;144;866340;-57
2021/04/21 05:11:28;;;;;;;11.23;7.45;;;;;;;;;;363722;144;857359;-58
2021/04/21 05:12:29;;;;;;;13.63;7.73;;;;;;;;;;362894;146;858898;-58
2021/04/21 05:13:41;;;;;;;10.01;7.94;;;;;;;;;;362487;145;865215;-58
2021/04/21 05:14:46;;;;;;;12.11;7.61;;;;;;;;;;362308;146;857754;-57
2021/04/21 05:15:52;;;;;;;10.39;7.72;;;;;;;;;;364877;146;858966;-58
2021/04/21 05:16:57;;;;;;;10.68;7.72;;;;;;;;;;362960;145;857950;-58
2021/04/21 05:18:00;;;;;;;9.43;7.42;;;;;;;;;;363455;146;861062;-57
2021/04/21 05:19:07;;;;;;;9.97;7.70;;;;;;;;;;363907;144;859960;-59
2021/04/21 05:20:17;;;;;;;10.51;7.92;;;;;;;;;;363287;146;858585;-58
2021/04/21 05:21:37;;;;;;;12.24;7.75;;;;;;;;;;362902;144;857717;-58
2021/04/21 05:22:44;;;;;;;8.38;7.25;;;;;;;;;;363180;146;857795;-58
2021/04/21 05:24:06;;;;;;;12.21;7.45;;;;;;;;;;366897;146;865006;-58
2021/04/21 05:25:26;;;;;;;11.76;7.63;;;;;;;;;;365954;144;857342;-58
2021/04/21 05:26:46;;;;;;;10.25;7.52;;;;;;;;;;365446;146;859326;-58
2021/04/21 05:27:52;;;;;;;9.53;7.44;;;;;;;;;;362669;145;857737;-58
2021/04/21 05:29:05;;;;;;;9.16;7.02;;;;;;;;;;362357;148;858053;-58
2021/04/21 05:30:12;;;;;;;9.61;7.19;;;;;;;;;;363770;144;857686;-58
2021/04/21 05:31:28;;;;;;;9.82;7.56;;;;;;;;;;362504;148;857400;-58
2021/04/21 05:32:32;;;;;;;10.09;7.11;;;;;;;;;;364020;144;857741;-58
2021/04/21 05:33:52;;;;;;;11.62;6.98;;;;;;;;;;362495;144;857209;-58
2021/04/21 05:35:13;;;;;;;9.27;6.91;;;;;;;;;;362459;148;857211;-58
2021/04/21 05:36:36;;;;;;;9.30;6.97;;;;;;;;;;363195;144;857322;-58
2021/04/21 05:37:56;;;;;;;9.57;6.73;;;;;;;;;;363381;146;857713;-58
2021/04/21 05:39:03;;;;;;;12.03;7.08;;;;;;;;;;362213;146;857973;-58
2021/04/21 05:40:09;;;;;;;9.74;6.61;;;;;;;;;;362291;146;864130;-57
2021/04/21 05:41:15;;;;;;;9.23;6.82;;;;;;;;;;363807;144;858755;-58
2021/04/21 05:42:25;;;;;;;10.26;7.13;;;;;;;;;;362137;144;856839;-58
2021/04/21 05:43:45;;;;;;;9.98;7.57;;;;;;;;;;362621;144;856463;-58
2021/04/21 05:44:55;;;;;;;9.82;6.93;;;;;;;;;;363385;144;856355;-58
2021/04/21 05:46:16;;;;;;;9.92;6.75;;;;;;;;;;363312;144;864031;-58
2021/04/21 05:47:34;;;;;;;10.32;6.83;;;;;;;;;;363308;144;864249;-58
2021/04/21 05:48:40;;;;;;;11.28;7.26;;;;;;;;;;366605;144;864095;-58
2021/04/21 05:50:01;;;;;;;9.94;7.72;;;;;;;;;;364939;144;856188;-58
2021/04/21 05:51:21;;;;;;;10.37;6.91;;;;;;;;;;364305;144;856423;-58
2021/04/21 05:52:27;;;;;;;11.46;7.29;;;;;;;;;;363915;144;864368;-58
2021/04/21 05:53:48;;;;;;;8.75;6.95;;;;;;;;;;363545;144;856375;-58
2021/04/21 05:55:03;;;;;;;9.87;7.28;;;;;;;;;;363110;144;856932;-58
2021/04/21 05:56:23;;;;;;;9.11;7.24;;;;;;;;;;362727;144;864027;-58
2021/04/21 05:57:45;;;;;;;9.62;6.90;;;;;;;;;;362683;144;856228;-59
2021/04/21 05:59:04;;;;;;;8.63;6.91;;;;;;;;;;362273;144;856165;-58
2021/04/21 06:00:24;;;;;;;9.11;7.52;;;;;;;;;;364434;144;856551;-58
2021/04/21 06:01:27;;;;;;;9.25;6.98;;;;;;;;;;363166;144;856159;-58
2021/04/21 06:02:29;;;;;;;12.03;7.43;;;;;;;;;;364113;144;863884;-58
2021/04/21 06:03:32;;;;;;;11.43;7.25;;;;;;;;;;364345;144;856168;-58
2021/04/21 06:04:34;;;;;;;11.54;7.53;;;;;;;;;;362713;144;856218;-58
2021/04/21 06:05:35;;;;;;;10.41;7.32;;;;;;;;;;362671;144;856677;-58
2021/04/21 06:06:38;;;;;;;10.63;7.11;;;;;;;;;;362776;144;863900;-59
2021/04/21 06:07:40;;;;;;;9.36;7.66;;;;;;;;;;363308;144;857946;-58
2021/04/21 06:08:41;;;;;;;10.53;7.35;;;;;;;;;;363497;144;864183;-58
2021/04/21 06:09:43;;;;;;;9.54;6.97;;;;;;;;;;363987;144;856254;-58
2021/04/21 06:10:44;;;;;;;9.85;7.39;;;;;;;;;;363329;144;864083;-58
2021/04/21 06:11:46;;;;;;;9.06;6.89;;;;;;;;;;364171;144;863829;-58
2021/04/21 06:12:48;;;;;;;9.26;6.30;;;;;;;;;;364717;144;856792;-58
2021/04/21 06:13:50;;;;;;;9.93;7.09;;;;;;;;;;356758;148;856745;-58
2021/04/21 06:14:52;;;;;;;9.04;7.45;;;;;;;;;;357602;147;863902;-58
2021/04/21 06:15:54;;;;;;;10.11;6.55;;;;;;;;;;365293;144;856410;-58
2021/04/21 06:16:56;;;;;;;10.44;7.21;;;;;;;;;;364977;144;856329;-58
2021/04/21 06:17:58;;;;;;;12.14;7.51;;;;;;;;;;366330;144;856960;-58
2021/04/21 06:19:01;;;;;;;8.75;6.74;;;;;;;;;;363143;144;864145;-58
2021/04/21 06:20:04;;;;;;;9.15;7.01;;;;;;;;;;361824;144;856418;-58
2021/04/21 06:21:07;;;;;;;10.25;6.63;;;;;;;;;;365902;144;863798;-58
2021/04/21 06:22:09;;;;;;;10.16;6.82;;;;;;;;;;363471;144;856650;-58